Airport View

Enter AWOS ICAO identifier for current METAR.

ex. KFNL

KCPT 262030Z AUTO 34021KT 8SM CLR 09/M06 A3041 RMK A01

26 Feb 2020 20:31

Frequency: 119.525

Phone: 817-641-4135

Other Area AWOS: KFWS - KGDJ - KINJ - KNFW

TAF KNFW 2615/2715 34022G28KT 9999 BKN035 BKN075 QNH3043INS BECMG 2615/2617 34020G25KT 9999 SCT040 SCT080 QNH3035INS BECMG 2622/2700 34012G18KT 9999 FEW070 QNH3032INS BECMG 2704/2706 VRB06KT 9999 SKC QNH3040INS T08/2622Z T00/2712Z AMD 1525 FN20046